createdAt,value
2023-05-13T00:00:55.522Z,12.14
2023-05-13T00:03:22.271Z,12.05
2023-05-13T00:05:48.898Z,12.03
2023-05-13T00:08:15.548Z,12.19
2023-05-13T00:10:42.044Z,12.24
2023-05-13T00:13:08.762Z,11.91
2023-05-13T00:15:35.200Z,11.75
2023-05-13T00:18:01.708Z,11.96
2023-05-13T00:20:28.309Z,11.87
2023-05-13T00:22:54.733Z,11.87
2023-05-13T00:25:21.204Z,11.86
2023-05-13T00:27:47.701Z,12.07
2023-05-13T00:30:14.183Z,12.33
2023-05-13T00:32:40.821Z,12.33
2023-05-13T00:35:08.901Z,12.23
2023-05-13T00:37:35.832Z,12.15
2023-05-13T00:40:02.380Z,12.20
2023-05-13T00:42:28.840Z,12.33
2023-05-13T00:44:55.384Z,12.41
2023-05-13T00:47:22.414Z,12.50
2023-05-13T00:49:49.179Z,12.38
2023-05-13T00:52:15.759Z,12.33
2023-05-13T00:54:42.306Z,12.14
2023-05-13T00:57:08.803Z,11.99
2023-05-13T00:59:35.344Z,12.05
2023-05-13T01:02:16.807Z,12.11
2023-05-13T01:04:49.655Z,12.00
2023-05-13T01:07:34.902Z,12.07
2023-05-13T01:10:23.951Z,12.20
2023-05-13T01:12:53.410Z,11.92
2023-05-13T01:15:25.497Z,12.04
2023-05-13T01:18:11.057Z,12.10
2023-05-13T01:20:40.625Z,11.92
2023-05-13T01:23:07.217Z,11.90
2023-05-13T01:25:34.789Z,11.75
2023-05-13T01:28:01.523Z,11.83
2023-05-13T01:30:28.114Z,11.88
2023-05-13T01:32:54.654Z,11.82
2023-05-13T01:35:22.077Z,11.87
2023-05-13T01:37:50.182Z,11.92
2023-05-13T01:40:31.153Z,12.01
2023-05-13T01:43:01.289Z,11.99
2023-05-13T01:45:29.819Z,11.99
2023-05-13T01:47:56.996Z,11.93
2023-05-13T01:50:24.767Z,12.10
2023-05-13T01:52:51.399Z,12.04
2023-05-13T01:55:18.107Z,12.00
2023-05-13T01:57:46.842Z,11.97
2023-05-13T02:00:13.628Z,12.02
2023-05-13T02:02:43.052Z,11.97
2023-05-13T02:05:09.962Z,11.91
2023-05-13T02:07:38.013Z,12.02
2023-05-13T02:10:04.686Z,12.03
2023-05-13T02:12:32.420Z,12.04
2023-05-13T02:14:59.102Z,11.98
2023-05-13T02:17:25.883Z,11.97
2023-05-13T02:19:53.831Z,11.80
2023-05-13T02:22:20.343Z,11.85
2023-05-13T02:24:46.796Z,11.72
2023-05-13T02:27:16.168Z,11.73
2023-05-13T02:29:42.708Z,12.04
2023-05-13T02:32:09.720Z,11.92
2023-05-13T02:34:36.327Z,11.97
2023-05-13T02:37:03.821Z,12.03
2023-05-13T02:39:30.882Z,12.13
2023-05-13T02:41:59.808Z,11.89
2023-05-13T02:44:31.147Z,11.74
2023-05-13T02:46:57.595Z,11.74
2023-05-13T02:49:24.169Z,11.81
2023-05-13T02:51:50.719Z,11.80
2023-05-13T02:54:21.654Z,11.81
2023-05-13T02:56:48.376Z,11.87
2023-05-13T02:59:14.841Z,11.88
2023-05-13T03:01:41.688Z,11.90
2023-05-13T03:04:08.248Z,12.02
2023-05-13T03:06:34.772Z,12.05
2023-05-13T03:09:01.426Z,11.92
2023-05-13T03:11:28.028Z,11.85
2023-05-13T03:13:54.486Z,11.81
2023-05-13T03:16:21.419Z,11.87
2023-05-13T03:18:48.016Z,11.88
2023-05-13T03:21:15.470Z,11.86
2023-05-13T03:23:42.007Z,11.99
2023-05-13T03:26:08.633Z,12.17
2023-05-13T03:28:35.602Z,12.15
2023-05-13T03:31:02.189Z,12.20
2023-05-13T03:33:30.950Z,12.22
2023-05-13T03:35:57.497Z,12.22
2023-05-13T03:38:28.438Z,12.16
2023-05-13T03:40:54.939Z,12.30
2023-05-13T03:43:21.384Z,12.28
2023-05-13T03:45:54.069Z,12.14
2023-05-13T03:48:22.338Z,12.16
2023-05-13T03:50:49.016Z,12.24
2023-05-13T03:53:17.108Z,12.16
2023-05-13T03:55:45.919Z,12.33
2023-05-13T03:58:15.826Z,12.21
2023-05-13T04:00:42.799Z,12.33
2023-05-13T04:03:09.487Z,12.37
2023-05-13T04:05:36.045Z,12.41
2023-05-13T04:08:02.511Z,12.39
2023-05-13T04:10:28.969Z,12.39
2023-05-13T04:12:57.258Z,12.43
2023-05-13T04:15:24.026Z,12.35
2023-05-13T04:17:51.305Z,12.43
2023-05-13T04:20:18.017Z,12.46
2023-05-13T04:22:44.520Z,12.40
2023-05-13T04:25:11.120Z,12.35
2023-05-13T04:27:37.607Z,12.44
2023-05-13T04:30:11.036Z,12.51
2023-05-13T04:32:39.525Z,12.40
2023-05-13T04:35:09.446Z,12.28
2023-05-13T04:37:37.160Z,12.32
2023-05-13T04:40:07.082Z,12.30
2023-05-13T04:42:33.729Z,12.38
2023-05-13T04:45:01.148Z,12.28
2023-05-13T04:47:27.719Z,12.26
2023-05-13T04:49:54.244Z,12.27
2023-05-13T04:52:21.089Z,12.33
2023-05-13T04:54:47.546Z,12.36
2023-05-13T04:57:14.122Z,12.41
2023-05-13T04:59:40.711Z,12.32
2023-05-13T05:02:08.589Z,12.36
2023-05-13T05:04:35.274Z,12.36
2023-05-13T05:07:05.068Z,12.39
2023-05-13T05:09:32.132Z,12.42
2023-05-13T05:11:59.648Z,12.47
2023-05-13T05:14:29.089Z,12.52
2023-05-13T05:16:55.773Z,12.48
2023-05-13T05:19:24.333Z,12.59
2023-05-13T05:21:51.970Z,12.44
2023-05-13T05:24:18.637Z,12.38
2023-05-13T05:26:45.330Z,12.41
2023-05-13T05:29:11.886Z,12.31
2023-05-13T05:31:38.767Z,12.29
2023-05-13T05:34:05.483Z,12.73
2023-05-13T05:36:32.518Z,12.45
2023-05-13T05:38:59.160Z,12.42
2023-05-13T05:41:32.315Z,12.27
2023-05-13T05:43:58.844Z,12.52
2023-05-13T05:46:25.488Z,12.40
2023-05-13T05:48:52.164Z,12.24
2023-05-13T05:51:19.869Z,12.23
2023-05-13T05:53:46.453Z,12.45
2023-05-13T05:56:15.543Z,12.23
2023-05-13T05:58:44.227Z,12.19
2023-05-13T06:01:11.191Z,12.34
2023-05-13T06:03:38.099Z,12.25
2023-05-13T06:06:04.908Z,12.41
2023-05-13T06:08:31.495Z,12.32
2023-05-13T06:10:58.588Z,12.24
2023-05-13T06:13:26.158Z,12.18
2023-05-13T06:15:52.752Z,12.27
2023-05-13T06:18:19.291Z,12.27
2023-05-13T06:20:46.049Z,12.49
2023-05-13T06:23:14.376Z,12.32
2023-05-13T06:25:41.185Z,12.38
2023-05-13T06:28:08.564Z,12.36
2023-05-13T06:30:35.052Z,12.23
2023-05-13T06:33:02.658Z,12.45
2023-05-13T06:35:30.442Z,12.36
2023-05-13T06:37:57.608Z,12.48
2023-05-13T06:40:24.354Z,12.54
2023-05-13T06:42:51.228Z,12.52
2023-05-13T06:45:28.081Z,12.62
2023-05-13T06:47:54.868Z,12.41
2023-05-13T06:50:21.588Z,12.35
2023-05-13T06:52:48.327Z,12.37
2023-05-13T06:55:16.543Z,12.42
2023-05-13T06:57:46.644Z,12.44
2023-05-13T07:00:14.128Z,12.30
2023-05-13T07:02:41.158Z,12.38
2023-05-13T07:05:10.835Z,12.60
2023-05-13T07:07:37.838Z,12.42
2023-05-13T07:10:04.489Z,12.38
2023-05-13T07:12:31.161Z,12.40
2023-05-13T07:14:58.071Z,12.42
2023-05-13T07:17:24.653Z,12.43
2023-05-13T07:19:51.596Z,12.60
2023-05-13T07:22:18.323Z,12.47
2023-05-13T07:24:44.771Z,12.43
2023-05-13T07:27:11.242Z,12.55
2023-05-13T07:29:37.709Z,12.56
2023-05-13T07:32:05.151Z,12.57
2023-05-13T07:34:32.406Z,12.73
2023-05-13T07:36:58.915Z,12.52
2023-05-13T07:39:26.592Z,12.66
2023-05-13T07:41:53.132Z,12.77
2023-05-13T07:44:19.584Z,12.96
2023-05-13T07:46:46.281Z,12.93
2023-05-13T07:49:12.789Z,12.82
2023-05-13T07:51:39.237Z,12.90
2023-05-13T07:54:05.697Z,12.93
2023-05-13T07:56:32.168Z,12.95
2023-05-13T07:58:58.674Z,13.14
2023-05-13T08:01:25.143Z,12.84
2023-05-13T08:03:51.798Z,13.17
2023-05-13T08:06:18.400Z,12.72
2023-05-13T08:08:44.842Z,12.83
2023-05-13T08:11:11.489Z,12.82
2023-05-13T08:13:38.476Z,12.87
2023-05-13T08:16:07.109Z,12.90
2023-05-13T08:18:33.722Z,13.12
2023-05-13T08:21:00.411Z,13.44
2023-05-13T08:23:40.527Z,12.64
2023-05-13T08:26:11.487Z,12.68
2023-05-13T08:28:38.061Z,12.78
2023-05-13T08:31:04.670Z,12.77
2023-05-13T08:33:31.468Z,12.80
2023-05-13T08:35:59.448Z,12.81
2023-05-13T08:38:25.997Z,12.97
2023-05-13T08:40:52.899Z,13.10
2023-05-13T08:43:19.527Z,13.12
2023-05-13T08:45:46.932Z,13.40
2023-05-13T08:48:15.541Z,13.17
2023-05-13T08:50:42.560Z,13.29
2023-05-13T08:53:09.986Z,13.14
2023-05-13T08:55:36.425Z,13.21
2023-05-13T08:58:03.069Z,13.02
2023-05-13T09:00:29.601Z,13.02
2023-05-13T09:02:56.142Z,13.40
2023-05-13T09:05:23.129Z,13.46
2023-05-13T09:07:49.956Z,13.14
2023-05-13T09:10:17.662Z,13.16
2023-05-13T09:12:51.862Z,13.03
2023-05-13T09:15:19.815Z,13.08
2023-05-13T09:17:52.294Z,13.11
2023-05-13T09:20:20.027Z,13.30
2023-05-13T09:22:57.343Z,13.56
2023-05-13T09:25:24.748Z,13.29
2023-05-13T09:27:52.500Z,13.24
2023-05-13T09:30:21.771Z,13.39
2023-05-13T09:33:07.443Z,13.37
2023-05-13T09:35:34.509Z,13.45
2023-05-13T09:38:01.010Z,13.75
2023-05-13T09:40:27.589Z,13.36
2023-05-13T09:42:56.998Z,13.24
2023-05-13T09:45:23.850Z,13.25
2023-05-13T09:47:52.413Z,13.24
2023-05-13T09:50:19.530Z,13.49
2023-05-13T09:52:46.703Z,13.15
2023-05-13T09:55:13.236Z,13.18
2023-05-13T09:57:40.821Z,13.25
2023-05-13T10:00:11.053Z,13.19
2023-05-13T10:02:45.037Z,13.36
2023-05-13T10:05:11.723Z,13.57
2023-05-13T10:07:39.305Z,13.47
2023-05-13T10:10:07.492Z,13.56
2023-05-13T10:12:34.118Z,13.62
2023-05-13T10:15:01.629Z,13.55
2023-05-13T10:17:29.363Z,13.65
2023-05-13T10:19:56.412Z,13.85
2023-05-13T10:22:30.203Z,13.90
2023-05-13T10:24:58.107Z,13.91
2023-05-13T10:27:29.421Z,13.85
2023-05-13T10:29:56.683Z,13.82
2023-05-13T10:32:27.230Z,13.78
2023-05-13T10:34:56.897Z,13.81
2023-05-13T10:37:47.112Z,13.75
2023-05-13T10:40:20.099Z,13.62
2023-05-13T10:42:54.095Z,13.77
2023-05-13T10:45:25.802Z,13.81
2023-05-13T10:47:52.935Z,13.87
2023-05-13T10:50:24.075Z,13.87
2023-05-13T10:52:51.521Z,13.91
2023-05-13T10:55:21.356Z,13.82
2023-05-13T10:58:07.231Z,13.69
2023-05-13T11:00:34.205Z,13.73
2023-05-13T11:03:09.845Z,13.47
2023-05-13T11:05:38.956Z,13.58
2023-05-13T11:08:05.421Z,13.59
2023-05-13T11:10:32.083Z,13.47
2023-05-13T11:13:11.618Z,13.56
2023-05-13T11:16:04.689Z,13.34
2023-05-13T11:18:31.553Z,13.22
2023-05-13T11:21:04.389Z,13.36
2023-05-13T11:23:33.810Z,13.69
2023-05-13T11:26:12.158Z,13.59
2023-05-13T11:29:02.690Z,13.45
2023-05-13T11:31:41.564Z,13.33
2023-05-13T11:34:12.152Z,13.28
2023-05-13T11:36:39.764Z,13.15
2023-05-13T11:39:13.852Z,13.22
2023-05-13T11:41:41.742Z,13.30
2023-05-13T11:44:08.262Z,13.17
2023-05-13T11:46:35.044Z,13.19
2023-05-13T11:49:01.572Z,13.26
2023-05-13T11:51:28.742Z,13.27
2023-05-13T11:54:02.592Z,13.52
2023-05-13T11:56:29.293Z,13.52
2023-05-13T11:58:56.189Z,13.54
2023-05-13T12:01:22.710Z,13.43
2023-05-13T12:03:49.233Z,13.58
2023-05-13T12:06:15.851Z,13.40
2023-05-13T12:08:46.198Z,13.86
2023-05-13T12:11:13.327Z,13.43
2023-05-13T12:13:41.133Z,13.43
2023-05-13T12:16:08.048Z,13.73
2023-05-13T12:18:34.690Z,13.67
2023-05-13T12:21:13.052Z,13.78
2023-05-13T12:23:40.616Z,13.62
2023-05-13T12:26:07.829Z,13.25
2023-05-13T12:28:34.279Z,13.18
2023-05-13T12:31:02.019Z,13.28
2023-05-13T12:33:33.298Z,13.37
2023-05-13T12:36:21.682Z,13.46
2023-05-13T12:38:57.532Z,13.62
2023-05-13T12:41:26.648Z,13.55
2023-05-13T12:44:00.339Z,13.64
2023-05-13T12:46:27.112Z,13.51
2023-05-13T12:48:57.159Z,13.54
2023-05-13T12:51:24.018Z,13.67
2023-05-13T12:53:50.535Z,13.82
2023-05-13T12:56:17.093Z,13.73
2023-05-13T12:58:43.658Z,13.47
2023-05-13T13:01:10.275Z,13.69
2023-05-13T13:03:36.860Z,13.58
2023-05-13T13:06:03.559Z,13.60
2023-05-13T13:08:30.814Z,13.60
2023-05-13T13:10:58.778Z,13.40
2023-05-13T13:13:25.238Z,13.62
2023-05-13T13:15:51.747Z,13.71
2023-05-13T13:18:18.642Z,13.69
2023-05-13T13:20:45.137Z,13.79
2023-05-13T13:23:11.682Z,14.07
2023-05-13T13:25:38.137Z,13.91
2023-05-13T13:28:04.696Z,13.95
2023-05-13T13:30:31.262Z,14.15
2023-05-13T13:32:57.894Z,14.11
2023-05-13T13:35:24.346Z,13.96
2023-05-13T13:37:50.827Z,14.07
2023-05-13T13:40:18.443Z,14.24
2023-05-13T13:42:45.291Z,13.90
2023-05-13T13:45:12.618Z,14.10
2023-05-13T13:47:39.290Z,14.08
2023-05-13T13:50:06.362Z,14.13
2023-05-13T13:52:32.957Z,13.92
2023-05-13T13:54:59.474Z,13.99
2023-05-13T13:57:25.923Z,14.23
2023-05-13T13:59:52.376Z,14.12
2023-05-13T14:02:18.977Z,14.24
2023-05-13T14:04:46.434Z,14.21
2023-05-13T14:07:13.108Z,14.52
2023-05-13T14:09:39.553Z,14.28
2023-05-13T14:12:06.124Z,14.14
2023-05-13T14:14:32.665Z,13.97
2023-05-13T14:16:59.142Z,14.02
2023-05-13T14:19:25.932Z,14.00
2023-05-13T14:21:52.356Z,13.85
2023-05-13T14:24:18.823Z,13.73
2023-05-13T14:26:45.358Z,13.93
2023-05-13T14:29:11.803Z,14.08
2023-05-13T14:31:38.399Z,13.89
2023-05-13T14:34:07.836Z,13.86
2023-05-13T14:36:34.666Z,14.02
2023-05-13T14:39:01.157Z,13.97
2023-05-13T14:41:29.226Z,14.23
2023-05-13T14:43:55.670Z,13.87
2023-05-13T14:46:22.211Z,14.04
2023-05-13T14:48:48.737Z,14.05
2023-05-13T14:51:15.542Z,13.96
2023-05-13T14:53:42.313Z,14.10
2023-05-13T14:56:08.843Z,13.97
2023-05-13T14:58:35.475Z,13.97
2023-05-13T15:01:02.203Z,13.89
2023-05-13T15:03:28.764Z,13.93
2023-05-13T15:05:56.054Z,13.83
2023-05-13T15:08:22.666Z,13.87
2023-05-13T15:10:49.181Z,13.83
2023-05-13T15:13:15.750Z,14.06
2023-05-13T15:15:42.381Z,13.86
2023-05-13T15:18:08.901Z,13.54
2023-05-13T15:20:35.588Z,13.41
2023-05-13T15:23:02.037Z,13.56
2023-05-13T15:25:28.486Z,13.41
2023-05-13T15:27:54.946Z,13.49
2023-05-13T15:30:21.547Z,13.54
2023-05-13T15:32:48.180Z,13.60
2023-05-13T15:35:15.562Z,13.62
2023-05-13T15:37:42.706Z,13.70
2023-05-13T15:40:09.458Z,13.54
2023-05-13T15:42:36.762Z,13.57
2023-05-13T15:45:03.684Z,13.94
2023-05-13T15:47:30.532Z,13.59
2023-05-13T15:49:57.196Z,13.54
2023-05-13T15:52:23.625Z,13.38
2023-05-13T15:54:50.229Z,13.43
2023-05-13T15:57:19.064Z,13.20
2023-05-13T15:59:45.640Z,13.41
2023-05-13T16:02:12.151Z,13.24
2023-05-13T16:04:38.848Z,13.22
2023-05-13T16:07:10.728Z,13.39
2023-05-13T16:09:40.623Z,13.28
2023-05-13T16:12:07.577Z,13.43
2023-05-13T16:14:34.531Z,13.51
2023-05-13T16:17:00.982Z,13.44
2023-05-13T16:19:27.997Z,13.59
2023-05-13T16:21:54.513Z,13.67
2023-05-13T16:24:22.343Z,13.46
2023-05-13T16:26:48.897Z,13.54
2023-05-13T16:29:15.360Z,13.64
2023-05-13T16:31:41.858Z,13.46
2023-05-13T16:34:08.315Z,13.59
2023-05-13T16:36:35.027Z,13.54
2023-05-13T16:39:01.625Z,13.65
2023-05-13T16:41:28.119Z,13.54
2023-05-13T16:43:54.661Z,13.65
2023-05-13T16:46:21.141Z,13.62
2023-05-13T16:48:47.689Z,13.74
2023-05-13T16:51:14.214Z,13.49
2023-05-13T16:53:42.092Z,13.45
2023-05-13T16:56:08.559Z,13.67
2023-05-13T16:58:35.055Z,13.37
2023-05-13T17:01:01.604Z,13.35
2023-05-13T17:03:28.183Z,13.25
2023-05-13T17:05:54.894Z,13.19
2023-05-13T17:08:24.264Z,13.20
2023-05-13T17:10:50.763Z,13.14
2023-05-13T17:13:19.616Z,13.43
2023-05-13T17:15:46.770Z,13.34
2023-05-13T17:18:13.402Z,13.35
2023-05-13T17:20:39.861Z,13.36
2023-05-13T17:23:06.430Z,13.31
2023-05-13T17:25:32.949Z,13.21
2023-05-13T17:27:59.379Z,13.16
2023-05-13T17:30:25.879Z,13.12
2023-05-13T17:32:52.490Z,13.19
2023-05-13T17:35:19.036Z,13.23
2023-05-13T17:37:45.482Z,13.17
2023-05-13T17:40:12.216Z,13.29
2023-05-13T17:42:40.574Z,13.26
2023-05-13T17:45:07.461Z,13.17
2023-05-13T17:47:34.078Z,13.15
2023-05-13T17:50:00.635Z,13.33
2023-05-13T17:52:27.115Z,13.49
2023-05-13T17:54:53.625Z,13.43
2023-05-13T17:57:20.102Z,13.29
2023-05-13T17:59:47.911Z,13.23
2023-05-13T18:02:14.465Z,13.13
2023-05-13T18:04:42.004Z,13.16
2023-05-13T18:07:08.773Z,13.10
2023-05-13T18:09:35.635Z,13.20
2023-05-13T18:12:03.203Z,13.20
2023-05-13T18:14:32.294Z,13.13
2023-05-13T18:16:59.255Z,13.09
2023-05-13T18:19:25.769Z,13.17
2023-05-13T18:21:52.230Z,13.18
2023-05-13T18:24:18.671Z,13.09
2023-05-13T18:26:45.173Z,13.16
2023-05-13T18:29:11.615Z,13.17
2023-05-13T18:31:38.137Z,13.31
2023-05-13T18:34:04.619Z,13.33
2023-05-13T18:36:31.159Z,13.16
2023-05-13T18:38:58.003Z,13.13
2023-05-13T18:41:24.597Z,13.09
2023-05-13T18:43:51.465Z,13.22
2023-05-13T18:46:17.958Z,13.19
2023-05-13T18:48:44.529Z,13.15
2023-05-13T18:51:11.546Z,13.17
2023-05-13T18:53:38.106Z,13.20
2023-05-13T18:56:04.726Z,13.31
2023-05-13T18:58:31.494Z,13.36
2023-05-13T19:00:58.001Z,13.24
2023-05-13T19:03:24.630Z,13.13
2023-05-13T19:05:52.090Z,13.13
2023-05-13T19:08:18.757Z,13.18
2023-05-13T19:10:45.252Z,13.16
2023-05-13T19:13:11.757Z,13.17
2023-05-13T19:15:38.206Z,13.15
2023-05-13T19:18:04.760Z,13.22
2023-05-13T19:20:31.380Z,13.20
2023-05-13T19:22:57.864Z,13.17
2023-05-13T19:25:24.328Z,13.12
2023-05-13T19:27:51.103Z,13.04
2023-05-13T19:30:17.635Z,13.04
2023-05-13T19:32:44.212Z,13.06
2023-05-13T19:35:11.385Z,12.98
2023-05-13T19:37:37.914Z,13.04
2023-05-13T19:40:04.825Z,13.05
2023-05-13T19:42:31.341Z,13.06
2023-05-13T19:44:57.985Z,13.08
2023-05-13T19:47:26.714Z,13.06
2023-05-13T19:49:53.310Z,13.08
2023-05-13T19:52:19.759Z,13.13
2023-05-13T19:54:46.330Z,13.10
2023-05-13T19:57:12.831Z,13.07
2023-05-13T19:59:41.640Z,13.11
2023-05-13T20:02:08.660Z,13.11
2023-05-13T20:04:35.614Z,13.08
2023-05-13T20:07:02.051Z,13.14
2023-05-13T20:09:28.499Z,13.13
2023-05-13T20:11:55.019Z,13.05
2023-05-13T20:14:27.595Z,13.02
2023-05-13T20:16:54.491Z,13.02
2023-05-13T20:19:21.182Z,13.14
2023-05-13T20:21:47.932Z,13.10
2023-05-13T20:24:14.369Z,13.20
2023-05-13T20:26:40.873Z,13.18
2023-05-13T20:29:08.118Z,13.12
2023-05-13T20:31:34.652Z,13.03
2023-05-13T20:34:01.442Z,13.04
2023-05-13T20:36:27.974Z,13.04
2023-05-13T20:38:54.488Z,13.02
2023-05-13T20:41:21.777Z,13.17
2023-05-13T20:43:48.238Z,13.25
2023-05-13T20:46:16.930Z,13.14
2023-05-13T20:48:43.655Z,13.23
2023-05-13T20:51:10.157Z,13.27
2023-05-13T20:53:37.228Z,13.19
2023-05-13T20:56:04.096Z,13.15
2023-05-13T20:58:30.821Z,13.05
2023-05-13T21:00:57.310Z,13.03
2023-05-13T21:03:23.865Z,13.12
2023-05-13T21:05:50.390Z,13.01
2023-05-13T21:08:17.139Z,13.01
2023-05-13T21:10:43.599Z,13.05
2023-05-13T21:13:10.497Z,12.93
2023-05-13T21:15:37.004Z,12.91
2023-05-13T21:18:03.637Z,12.95
2023-05-13T21:20:30.256Z,12.96
2023-05-13T21:22:56.748Z,12.84
2023-05-13T21:25:23.205Z,12.81
2023-05-13T21:27:50.378Z,12.94
2023-05-13T21:30:16.907Z,12.91
2023-05-13T21:32:43.457Z,12.92
2023-05-13T21:35:10.050Z,12.93
2023-05-13T21:37:36.526Z,12.72
2023-05-13T21:40:03.140Z,12.63
2023-05-13T21:42:29.606Z,12.74
2023-05-13T21:44:57.194Z,12.83
2023-05-13T21:47:23.725Z,12.90
2023-05-13T21:49:50.229Z,12.90
2023-05-13T21:52:17.201Z,12.89
2023-05-13T21:54:43.709Z,12.89
2023-05-13T21:57:10.188Z,12.74
2023-05-13T21:59:36.645Z,12.63
2023-05-13T22:02:03.186Z,12.64
2023-05-13T22:04:29.634Z,12.42
2023-05-13T22:06:56.173Z,12.40
2023-05-13T22:09:22.759Z,12.41
2023-05-13T22:11:49.296Z,12.51
2023-05-13T22:14:15.776Z,12.69
2023-05-13T22:16:42.327Z,12.69
2023-05-13T22:19:09.358Z,12.50
2023-05-13T22:21:36.114Z,12.63
2023-05-13T22:24:04.805Z,12.62
2023-05-13T22:26:31.273Z,12.60
2023-05-13T22:28:57.772Z,12.42
2023-05-13T22:31:24.292Z,12.30
2023-05-13T22:33:50.857Z,12.43
2023-05-13T22:36:17.316Z,12.65
2023-05-13T22:38:43.980Z,12.70
2023-05-13T22:41:11.264Z,12.77
2023-05-13T22:43:37.785Z,12.73
2023-05-13T22:46:04.349Z,12.83
2023-05-13T22:48:30.895Z,12.88
2023-05-13T22:50:58.302Z,12.74
2023-05-13T22:53:25.195Z,12.74
2023-05-13T22:55:51.822Z,12.67
2023-05-13T22:58:18.809Z,12.57
2023-05-13T23:00:46.134Z,12.62
2023-05-13T23:03:12.725Z,12.70
2023-05-13T23:05:39.187Z,12.71
2023-05-13T23:08:05.673Z,12.54
2023-05-13T23:10:33.418Z,12.51
2023-05-13T23:13:00.028Z,12.63
2023-05-13T23:15:26.676Z,12.75
2023-05-13T23:17:53.207Z,12.76
2023-05-13T23:20:19.685Z,12.78
2023-05-13T23:22:47.700Z,12.88
2023-05-13T23:25:14.161Z,12.69
2023-05-13T23:27:40.638Z,12.62
2023-05-13T23:30:07.552Z,12.49
2023-05-13T23:32:34.030Z,12.70
2023-05-13T23:35:00.481Z,12.84
2023-05-13T23:37:26.983Z,12.82
2023-05-13T23:39:53.583Z,12.73
2023-05-13T23:42:20.107Z,12.68
2023-05-13T23:44:46.967Z,12.56
2023-05-13T23:47:13.569Z,12.50
2023-05-13T23:49:40.100Z,12.52
2023-05-13T23:52:06.609Z,12.42
2023-05-13T23:54:33.116Z,12.54
2023-05-13T23:56:59.559Z,12.42
2023-05-13T23:59:26.064Z,12.43
